sensor_id;sensor_type;location;lat;lon;timestamp;P1;durP1;ratioP1;P2;durP2;ratioP2
69523;SDS011;56723;42.694;23.286;2023-03-01T03:13:21;1.80;;;1.50;;
69523;SDS011;56723;42.694;23.286;2023-03-01T03:15:49;2.15;;;1.75;;
69523;SDS011;56723;42.694;23.286;2023-03-01T03:18:16;2.47;;;2.00;;
69523;SDS011;56723;42.694;23.286;2023-03-01T03:20:44;3.03;;;1.90;;
69523;SDS011;56723;42.694;23.286;2023-03-01T03:23:11;2.43;;;1.77;;
69523;SDS011;56723;42.694;23.286;2023-03-01T03:25:39;2.90;;;2.10;;
69523;SDS011;56723;42.694;23.286;2023-03-01T03:28:06;2.80;;;2.10;;
69523;SDS011;56723;42.694;23.286;2023-03-01T03:30:38;3.00;;;1.93;;
69523;SDS011;56723;42.694;23.286;2023-03-01T03:33:06;2.53;;;2.00;;
69523;SDS011;56723;42.694;23.286;2023-03-01T06:51:00;3.37;;;2.53;;
69523;SDS011;56723;42.694;23.286;2023-03-01T06:53:28;4.03;;;2.40;;
69523;SDS011;56723;42.694;23.286;2023-03-01T06:55:56;4.20;;;2.47;;
69523;SDS011;56723;42.694;23.286;2023-03-01T06:58:23;4.97;;;2.37;;
69523;SDS011;56723;42.694;23.286;2023-03-01T07:00:52;5.10;;;2.60;;
69523;SDS011;56723;42.694;23.286;2023-03-01T07:03:18;2.70;;;1.70;;
69523;SDS011;56723;42.694;23.286;2023-03-01T07:05:48;4.27;;;2.43;;
69523;SDS011;56723;42.694;23.286;2023-03-01T07:08:16;5.50;;;2.37;;
69523;SDS011;56723;42.694;23.286;2023-03-01T07:10:43;4.60;;;2.27;;
69523;SDS011;56723;42.694;23.286;2023-03-01T07:13:10;4.33;;;1.90;;
69523;SDS011;56723;42.694;23.286;2023-03-01T07:15:37;4.07;;;2.67;;
69523;SDS011;56723;42.694;23.286;2023-03-01T07:18:04;5.50;;;2.90;;
69523;SDS011;56723;42.694;23.286;2023-03-01T07:20:30;3.73;;;2.60;;
69523;SDS011;56723;42.694;23.286;2023-03-01T07:22:57;2.13;;;1.23;;
69523;SDS011;56723;42.694;23.286;2023-03-01T07:25:25;4.20;;;2.40;;
69523;SDS011;56723;42.694;23.286;2023-03-01T07:27:52;5.53;;;1.97;;
69523;SDS011;56723;42.694;23.286;2023-03-01T07:30:20;4.73;;;2.10;;
69523;SDS011;56723;42.694;23.286;2023-03-01T07:32:47;3.73;;;1.83;;
69523;SDS011;56723;42.694;23.286;2023-03-01T07:35:15;6.63;;;1.67;;
69523;SDS011;56723;42.694;23.286;2023-03-01T07:37:41;3.07;;;2.40;;
69523;SDS011;56723;42.694;23.286;2023-03-01T07:40:09;2.53;;;2.00;;
69523;SDS011;56723;42.694;23.286;2023-03-01T07:42:36;4.13;;;2.50;;
69523;SDS011;56723;42.694;23.286;2023-03-01T07:45:04;3.63;;;1.93;;
69523;SDS011;56723;42.694;23.286;2023-03-01T07:47:33;3.08;;;1.85;;
69523;SDS011;56723;42.694;23.286;2023-03-01T07:50:00;3.33;;;1.93;;
69523;SDS011;56723;42.694;23.286;2023-03-01T07:52:27;3.03;;;1.53;;
69523;SDS011;56723;42.694;23.286;2023-03-01T07:54:55;3.07;;;2.10;;
69523;SDS011;56723;42.694;23.286;2023-03-01T07:57:22;3.73;;;2.07;;
69523;SDS011;56723;42.694;23.286;2023-03-01T07:59:49;4.10;;;3.00;;
69523;SDS011;56723;42.694;23.286;2023-03-01T08:02:16;3.23;;;1.80;;
69523;SDS011;56723;42.694;23.286;2023-03-01T08:04:43;4.47;;;2.30;;
69523;SDS011;56723;42.694;23.286;2023-03-01T08:07:10;7.50;;;4.23;;
69523;SDS011;56723;42.694;23.286;2023-03-01T08:09:37;4.90;;;2.53;;
69523;SDS011;56723;42.694;23.286;2023-03-01T08:12:04;4.93;;;2.10;;
69523;SDS011;56723;42.694;23.286;2023-03-01T08:14:32;3.50;;;2.40;;
69523;SDS011;56723;42.694;23.286;2023-03-01T08:16:59;2.30;;;1.83;;
69523;SDS011;56723;42.694;23.286;2023-03-01T08:19:29;3.20;;;1.73;;
69523;SDS011;56723;42.694;23.286;2023-03-01T08:21:56;6.07;;;2.40;;
69523;SDS011;56723;42.694;23.286;2023-03-01T08:24:25;7.60;;;2.07;;
69523;SDS011;56723;42.694;23.286;2023-03-01T08:26:52;3.07;;;1.47;;
69523;SDS011;56723;42.694;23.286;2023-03-01T08:29:19;6.47;;;5.37;;
69523;SDS011;56723;42.694;23.286;2023-03-01T08:31:46;5.57;;;4.50;;
69523;SDS011;56723;42.694;23.286;2023-03-01T08:34:15;7.17;;;2.33;;
69523;SDS011;56723;42.694;23.286;2023-03-01T08:36:44;3.92;;;2.50;;
69523;SDS011;56723;42.694;23.286;2023-03-01T08:39:13;6.05;;;5.10;;
69523;SDS011;56723;42.694;23.286;2023-03-01T08:41:42;5.72;;;2.45;;
69523;SDS011;56723;42.694;23.286;2023-03-01T08:44:11;5.22;;;3.30;;
69523;SDS011;56723;42.694;23.286;2023-03-01T08:46:40;5.90;;;3.20;;
69523;SDS011;56723;42.694;23.286;2023-03-01T08:49:09;8.23;;;4.73;;
69523;SDS011;56723;42.694;23.286;2023-03-01T08:51:39;4.93;;;2.93;;
69523;SDS011;56723;42.694;23.286;2023-03-01T08:54:09;5.43;;;3.37;;
69523;SDS011;56723;42.694;23.286;2023-03-01T08:56:38;4.67;;;4.17;;
69523;SDS011;56723;42.694;23.286;2023-03-01T08:59:05;6.00;;;4.17;;
69523;SDS011;56723;42.694;23.286;2023-03-01T09:01:32;4.53;;;3.77;;
69523;SDS011;56723;42.694;23.286;2023-03-01T09:03:59;6.20;;;2.83;;
69523;SDS011;56723;42.694;23.286;2023-03-01T09:06:26;6.90;;;3.03;;
69523;SDS011;56723;42.694;23.286;2023-03-01T09:08:53;5.97;;;3.10;;
69523;SDS011;56723;42.694;23.286;2023-03-01T09:11:21;4.03;;;2.00;;
69523;SDS011;56723;42.694;23.286;2023-03-01T09:13:49;2.93;;;2.17;;
69523;SDS011;56723;42.694;23.286;2023-03-01T09:16:16;1.97;;;1.77;;
69523;SDS011;56723;42.694;23.286;2023-03-01T09:18:48;4.57;;;2.53;;
69523;SDS011;56723;42.694;23.286;2023-03-01T09:21:17;2.27;;;1.63;;
69523;SDS011;56723;42.694;23.286;2023-03-01T09:24:02;2.83;;;1.73;;
69523;SDS011;56723;42.694;23.286;2023-03-01T09:26:29;2.27;;;1.80;;
69523;SDS011;56723;42.694;23.286;2023-03-01T09:28:56;2.60;;;1.47;;
69523;SDS011;56723;42.694;23.286;2023-03-01T09:31:24;3.67;;;1.97;;
69523;SDS011;56723;42.694;23.286;2023-03-01T09:33:52;2.93;;;2.03;;
69523;SDS011;56723;42.694;23.286;2023-03-01T09:36:21;4.93;;;2.73;;
69523;SDS011;56723;42.694;23.286;2023-03-01T09:38:51;2.13;;;1.63;;
69523;SDS011;56723;42.694;23.286;2023-03-01T09:46:58;2.30;;;1.53;;
69523;SDS011;56723;42.694;23.286;2023-03-01T09:49:35;3.87;;;1.33;;
69523;SDS011;56723;42.694;23.286;2023-03-01T09:54:41;3.83;;;1.40;;
69523;SDS011;56723;42.694;23.286;2023-03-01T09:59:48;2.17;;;1.37;;
69523;SDS011;56723;42.694;23.286;2023-03-01T10:02:33;4.37;;;1.90;;
69523;SDS011;56723;42.694;23.286;2023-03-01T10:08:02;2.03;;;1.70;;
69523;SDS011;56723;42.694;23.286;2023-03-01T10:10:36;3.43;;;2.80;;
69523;SDS011;56723;42.694;23.286;2023-03-01T10:13:10;2.13;;;1.57;;
69523;SDS011;56723;42.694;23.286;2023-03-01T10:15:50;3.70;;;2.00;;
69523;SDS011;56723;42.694;23.286;2023-03-01T10:18:22;6.77;;;3.30;;
69523;SDS011;56723;42.694;23.286;2023-03-01T10:20:59;4.20;;;1.97;;
69523;SDS011;56723;42.694;23.286;2023-03-01T10:23:38;11.43;;;7.20;;
69523;SDS011;56723;42.694;23.286;2023-03-01T10:31:51;5.13;;;3.17;;
69523;SDS011;56723;42.694;23.286;2023-03-01T10:34:21;4.40;;;1.63;;
69523;SDS011;56723;42.694;23.286;2023-03-01T10:37:09;4.27;;;2.47;;
69523;SDS011;56723;42.694;23.286;2023-03-01T10:39:40;2.03;;;1.37;;
69523;SDS011;56723;42.694;23.286;2023-03-01T10:42:47;5.45;;;2.13;;
69523;SDS011;56723;42.694;23.286;2023-03-01T10:45:17;3.08;;;1.83;;
69523;SDS011;56723;42.694;23.286;2023-03-01T10:48:09;3.17;;;1.53;;
69523;SDS011;56723;42.694;23.286;2023-03-01T10:50:50;2.60;;;1.70;;
69523;SDS011;56723;42.694;23.286;2023-03-01T10:56:13;3.07;;;1.50;;
69523;SDS011;56723;42.694;23.286;2023-03-01T10:59:04;4.07;;;1.10;;
69523;SDS011;56723;42.694;23.286;2023-03-01T11:01:33;4.18;;;1.10;;
69523;SDS011;56723;42.694;23.286;2023-03-01T11:06:32;4.27;;;1.97;;
69523;SDS011;56723;42.694;23.286;2023-03-01T11:09:17;3.97;;;0.93;;
69523;SDS011;56723;42.694;23.286;2023-03-01T11:11:51;3.03;;;0.50;;
69523;SDS011;56723;42.694;23.286;2023-03-01T11:14:23;3.87;;;1.17;;
69523;SDS011;56723;42.694;23.286;2023-03-01T11:17:00;3.47;;;1.37;;
69523;SDS011;56723;42.694;23.286;2023-03-01T11:19:30;2.33;;;1.10;;
69523;SDS011;56723;42.694;23.286;2023-03-01T11:21:59;3.73;;;1.23;;
69523;SDS011;56723;42.694;23.286;2023-03-01T11:29:57;2.50;;;1.00;;
69523;SDS011;56723;42.694;23.286;2023-03-01T11:32:29;7.33;;;6.20;;
69523;SDS011;56723;42.694;23.286;2023-03-01T11:35:16;3.10;;;1.10;;
69523;SDS011;56723;42.694;23.286;2023-03-01T11:37:59;2.37;;;0.70;;
69523;SDS011;56723;42.694;23.286;2023-03-01T11:40:43;2.57;;;0.80;;
69523;SDS011;56723;42.694;23.286;2023-03-01T11:46:18;1.37;;;0.67;;
69523;SDS011;56723;42.694;23.286;2023-03-01T11:54:17;1.83;;;0.90;;
69523;SDS011;56723;42.694;23.286;2023-03-01T12:28:16;3.30;;;2.03;;
69523;SDS011;56723;42.694;23.286;2023-03-01T12:33:14;2.53;;;1.97;;
69523;SDS011;56723;42.694;23.286;2023-03-01T12:41:11;3.30;;;2.07;;
69523;SDS011;56723;42.694;23.286;2023-03-01T12:43:54;4.03;;;2.30;;
69523;SDS011;56723;42.694;23.286;2023-03-01T12:51:53;3.53;;;1.70;;
69523;SDS011;56723;42.694;23.286;2023-03-01T12:54:30;6.70;;;2.57;;
69523;SDS011;56723;42.694;23.286;2023-03-01T12:57:03;4.10;;;2.93;;
69523;SDS011;56723;42.694;23.286;2023-03-01T13:06:03;4.23;;;2.40;;
69523;SDS011;56723;42.694;23.286;2023-03-01T13:13:24;3.83;;;1.97;;
69523;SDS011;56723;42.694;23.286;2023-03-01T13:15:52;7.83;;;2.33;;
69523;SDS011;56723;42.694;23.286;2023-03-01T13:20:50;3.13;;;2.25;;
69523;SDS011;56723;42.694;23.286;2023-03-01T13:26:01;6.47;;;3.53;;
69523;SDS011;56723;42.694;23.286;2023-03-01T13:31:09;2.80;;;1.70;;
69523;SDS011;56723;42.694;23.286;2023-03-01T13:33:57;3.23;;;1.70;;
69523;SDS011;56723;42.694;23.286;2023-03-01T13:44:50;2.70;;;1.63;;
69523;SDS011;56723;42.694;23.286;2023-03-01T13:47:08;4.03;;;2.27;;
69523;SDS011;56723;42.694;23.286;2023-03-01T13:55:04;3.67;;;1.60;;
69523;SDS011;56723;42.694;23.286;2023-03-01T13:57:41;3.37;;;1.90;;
69523;SDS011;56723;42.694;23.286;2023-03-01T14:00:26;4.10;;;2.00;;
69523;SDS011;56723;42.694;23.286;2023-03-01T14:05:32;7.03;;;5.00;;
69523;SDS011;56723;42.694;23.286;2023-03-01T14:07:59;4.70;;;2.00;;
69523;SDS011;56723;42.694;23.286;2023-03-01T14:10:29;3.20;;;1.90;;
69523;SDS011;56723;42.694;23.286;2023-03-01T14:16:40;4.20;;;2.27;;
69523;SDS011;56723;42.694;23.286;2023-03-01T14:21:29;4.13;;;2.07;;
69523;SDS011;56723;42.694;23.286;2023-03-01T14:23:57;3.90;;;1.93;;
69523;SDS011;56723;42.694;23.286;2023-03-01T14:26:24;7.47;;;1.87;;
69523;SDS011;56723;42.694;23.286;2023-03-01T14:28:51;3.70;;;2.10;;
69523;SDS011;56723;42.694;23.286;2023-03-01T14:31:32;3.20;;;1.90;;
69523;SDS011;56723;42.694;23.286;2023-03-01T14:34:21;4.00;;;2.07;;
69523;SDS011;56723;42.694;23.286;2023-03-01T14:36:49;4.93;;;2.50;;
69523;SDS011;56723;42.694;23.286;2023-03-01T14:39:17;4.20;;;2.80;;
69523;SDS011;56723;42.694;23.286;2023-03-01T14:41:47;5.20;;;2.23;;
69523;SDS011;56723;42.694;23.286;2023-03-01T14:44:21;5.03;;;2.70;;
69523;SDS011;56723;42.694;23.286;2023-03-01T14:46:51;4.33;;;2.63;;
69523;SDS011;56723;42.694;23.286;2023-03-01T14:49:23;7.50;;;2.37;;
69523;SDS011;56723;42.694;23.286;2023-03-01T14:51:59;4.90;;;2.87;;
69523;SDS011;56723;42.694;23.286;2023-03-01T14:59:42;5.00;;;1.97;;
69523;SDS011;56723;42.694;23.286;2023-03-01T15:02:14;4.40;;;1.73;;
69523;SDS011;56723;42.694;23.286;2023-03-01T15:04:50;3.20;;;1.20;;
69523;SDS011;56723;42.694;23.286;2023-03-01T15:07:22;4.10;;;1.50;;
69523;SDS011;56723;42.694;23.286;2023-03-01T15:09:54;3.67;;;1.87;;
69523;SDS011;56723;42.694;23.286;2023-03-01T15:12:40;4.97;;;1.60;;
69523;SDS011;56723;42.694;23.286;2023-03-01T15:18:02;4.10;;;2.23;;
69523;SDS011;56723;42.694;23.286;2023-03-01T15:20:52;6.83;;;1.73;;
69523;SDS011;56723;42.694;23.286;2023-03-01T15:23:26;5.50;;;2.00;;
69523;SDS011;56723;42.694;23.286;2023-03-01T15:25:56;2.87;;;1.60;;
69523;SDS011;56723;42.694;23.286;2023-03-01T15:28:28;4.87;;;2.03;;
69523;SDS011;56723;42.694;23.286;2023-03-01T15:33:50;5.87;;;3.10;;
69523;SDS011;56723;42.694;23.286;2023-03-01T15:41:54;5.77;;;3.13;;
69523;SDS011;56723;42.694;23.286;2023-03-01T15:44:27;6.33;;;2.80;;
69523;SDS011;56723;42.694;23.286;2023-03-01T15:47:21;6.70;;;3.63;;
69523;SDS011;56723;42.694;23.286;2023-03-01T15:49:53;7.63;;;3.90;;
69523;SDS011;56723;42.694;23.286;2023-03-01T15:52:26;11.15;;;4.47;;
69523;SDS011;56723;42.694;23.286;2023-03-01T15:54:56;6.43;;;2.10;;
69523;SDS011;56723;42.694;23.286;2023-03-01T15:57:25;5.83;;;2.50;;
69523;SDS011;56723;42.694;23.286;2023-03-01T15:59:52;7.73;;;2.47;;
69523;SDS011;56723;42.694;23.286;2023-03-01T16:02:20;6.07;;;2.57;;
69523;SDS011;56723;42.694;23.286;2023-03-01T16:04:47;4.90;;;2.73;;
69523;SDS011;56723;42.694;23.286;2023-03-01T16:07:17;14.93;;;3.10;;
69523;SDS011;56723;42.694;23.286;2023-03-01T16:09:44;3.87;;;2.07;;
69523;SDS011;56723;42.694;23.286;2023-03-01T16:12:14;6.70;;;2.37;;
69523;SDS011;56723;42.694;23.286;2023-03-01T16:14:42;7.43;;;2.57;;
69523;SDS011;56723;42.694;23.286;2023-03-01T16:17:16;6.27;;;2.53;;
69523;SDS011;56723;42.694;23.286;2023-03-01T16:19:47;7.20;;;2.63;;
69523;SDS011;56723;42.694;23.286;2023-03-01T16:22:14;7.33;;;2.13;;
69523;SDS011;56723;42.694;23.286;2023-03-01T16:24:40;7.97;;;2.63;;
69523;SDS011;56723;42.694;23.286;2023-03-01T16:27:07;6.70;;;2.87;;
69523;SDS011;56723;42.694;23.286;2023-03-01T16:29:34;7.57;;;3.43;;
69523;SDS011;56723;42.694;23.286;2023-03-01T16:32:01;10.50;;;5.50;;
69523;SDS011;56723;42.694;23.286;2023-03-01T16:34:29;13.53;;;6.93;;
69523;SDS011;56723;42.694;23.286;2023-03-01T16:36:56;10.63;;;5.00;;
69523;SDS011;56723;42.694;23.286;2023-03-01T16:39:23;6.67;;;3.87;;
69523;SDS011;56723;42.694;23.286;2023-03-01T16:41:50;6.80;;;4.63;;
69523;SDS011;56723;42.694;23.286;2023-03-01T16:44:17;6.90;;;4.03;;
69523;SDS011;56723;42.694;23.286;2023-03-01T16:46:44;9.07;;;5.53;;
69523;SDS011;56723;42.694;23.286;2023-03-01T16:49:11;8.27;;;3.97;;
69523;SDS011;56723;42.694;23.286;2023-03-01T16:51:38;13.57;;;9.50;;
69523;SDS011;56723;42.694;23.286;2023-03-01T16:54:04;6.70;;;4.30;;
69523;SDS011;56723;42.694;23.286;2023-03-01T16:56:31;6.67;;;3.67;;
69523;SDS011;56723;42.694;23.286;2023-03-01T16:59:01;6.10;;;2.65;;
69523;SDS011;56723;42.694;23.286;2023-03-01T17:01:31;5.50;;;2.67;;
69523;SDS011;56723;42.694;23.286;2023-03-01T17:04:06;7.27;;;2.80;;
69523;SDS011;56723;42.694;23.286;2023-03-01T17:06:36;7.37;;;3.57;;
69523;SDS011;56723;42.694;23.286;2023-03-01T17:09:03;5.90;;;3.53;;
69523;SDS011;56723;42.694;23.286;2023-03-01T17:11:30;7.57;;;3.63;;
69523;SDS011;56723;42.694;23.286;2023-03-01T17:13:57;9.70;;;4.60;;
69523;SDS011;56723;42.694;23.286;2023-03-01T17:16:24;10.43;;;5.00;;
69523;SDS011;56723;42.694;23.286;2023-03-01T17:18:53;9.83;;;4.13;;
69523;SDS011;56723;42.694;23.286;2023-03-01T17:21:20;11.57;;;5.57;;
69523;SDS011;56723;42.694;23.286;2023-03-01T17:23:47;10.47;;;5.20;;
69523;SDS011;56723;42.694;23.286;2023-03-01T17:26:15;9.15;;;5.13;;
69523;SDS011;56723;42.694;23.286;2023-03-01T17:28:42;7.03;;;3.87;;
69523;SDS011;56723;42.694;23.286;2023-03-01T17:31:10;13.63;;;7.63;;
69523;SDS011;56723;42.694;23.286;2023-03-01T17:33:37;28.07;;;14.00;;
69523;SDS011;56723;42.694;23.286;2023-03-01T17:36:04;18.60;;;8.63;;
69523;SDS011;56723;42.694;23.286;2023-03-01T17:38:31;11.77;;;6.03;;
69523;SDS011;56723;42.694;23.286;2023-03-01T17:40:58;14.10;;;6.33;;
69523;SDS011;56723;42.694;23.286;2023-03-01T17:43:26;13.27;;;6.90;;
69523;SDS011;56723;42.694;23.286;2023-03-01T17:45:53;13.83;;;6.90;;
69523;SDS011;56723;42.694;23.286;2023-03-01T17:48:21;11.80;;;6.07;;
69523;SDS011;56723;42.694;23.286;2023-03-01T17:50:49;13.60;;;6.83;;
69523;SDS011;56723;42.694;23.286;2023-03-01T17:53:16;16.00;;;8.13;;
69523;SDS011;56723;42.694;23.286;2023-03-01T17:55:43;12.03;;;7.40;;
69523;SDS011;56723;42.694;23.286;2023-03-01T17:58:11;12.57;;;8.87;;
69523;SDS011;56723;42.694;23.286;2023-03-01T18:00:40;16.00;;;8.60;;
69523;SDS011;56723;42.694;23.286;2023-03-01T18:03:07;15.30;;;8.30;;
69523;SDS011;56723;42.694;23.286;2023-03-01T18:05:34;14.27;;;9.17;;
69523;SDS011;56723;42.694;23.286;2023-03-01T18:08:03;17.13;;;9.07;;
69523;SDS011;56723;42.694;23.286;2023-03-01T18:10:31;16.60;;;10.17;;
69523;SDS011;56723;42.694;23.286;2023-03-01T18:12:59;14.23;;;8.65;;
69523;SDS011;56723;42.694;23.286;2023-03-01T18:15:26;22.13;;;11.10;;
69523;SDS011;56723;42.694;23.286;2023-03-01T18:17:54;15.97;;;8.53;;
69523;SDS011;56723;42.694;23.286;2023-03-01T18:20:21;19.07;;;10.13;;
69523;SDS011;56723;42.694;23.286;2023-03-01T18:22:48;17.43;;;9.73;;
69523;SDS011;56723;42.694;23.286;2023-03-01T18:25:16;19.17;;;9.77;;
69523;SDS011;56723;42.694;23.286;2023-03-01T18:27:43;19.23;;;10.13;;
69523;SDS011;56723;42.694;23.286;2023-03-01T18:30:10;16.70;;;10.50;;
69523;SDS011;56723;42.694;23.286;2023-03-01T18:32:37;15.47;;;9.83;;
69523;SDS011;56723;42.694;23.286;2023-03-01T18:35:05;16.20;;;10.20;;
69523;SDS011;56723;42.694;23.286;2023-03-01T18:37:33;17.57;;;11.10;;
69523;SDS011;56723;42.694;23.286;2023-03-01T18:40:00;16.97;;;9.30;;
69523;SDS011;56723;42.694;23.286;2023-03-01T18:42:27;17.13;;;11.53;;
69523;SDS011;56723;42.694;23.286;2023-03-01T18:44:54;15.83;;;10.03;;
69523;SDS011;56723;42.694;23.286;2023-03-01T18:47:21;25.97;;;16.90;;
69523;SDS011;56723;42.694;23.286;2023-03-01T18:49:48;15.53;;;9.70;;
69523;SDS011;56723;42.694;23.286;2023-03-01T18:52:15;17.33;;;9.93;;
69523;SDS011;56723;42.694;23.286;2023-03-01T18:54:42;21.90;;;14.10;;
69523;SDS011;56723;42.694;23.286;2023-03-01T18:57:10;24.73;;;14.90;;
69523;SDS011;56723;42.694;23.286;2023-03-01T18:59:37;21.43;;;11.80;;
69523;SDS011;56723;42.694;23.286;2023-03-01T19:02:03;14.33;;;9.63;;
69523;SDS011;56723;42.694;23.286;2023-03-01T19:04:30;14.77;;;10.23;;
69523;SDS011;56723;42.694;23.286;2023-03-01T19:06:57;15.13;;;10.03;;
69523;SDS011;56723;42.694;23.286;2023-03-01T19:09:27;17.57;;;9.07;;
69523;SDS011;56723;42.694;23.286;2023-03-01T19:11:54;16.07;;;10.20;;
69523;SDS011;56723;42.694;23.286;2023-03-01T19:14:24;17.87;;;9.57;;
69523;SDS011;56723;42.694;23.286;2023-03-01T19:16:51;13.27;;;9.27;;
69523;SDS011;56723;42.694;23.286;2023-03-01T19:19:18;14.17;;;9.40;;
69523;SDS011;56723;42.694;23.286;2023-03-01T19:21:44;16.97;;;10.67;;
69523;SDS011;56723;42.694;23.286;2023-03-01T19:24:28;15.03;;;9.20;;
69523;SDS011;56723;42.694;23.286;2023-03-01T19:26:56;15.27;;;10.30;;
69523;SDS011;56723;42.694;23.286;2023-03-01T19:29:23;16.03;;;10.63;;
69523;SDS011;56723;42.694;23.286;2023-03-01T19:31:50;14.53;;;9.13;;
69523;SDS011;56723;42.694;23.286;2023-03-01T19:34:17;15.30;;;10.20;;
69523;SDS011;56723;42.694;23.286;2023-03-01T19:36:44;16.00;;;9.00;;
69523;SDS011;56723;42.694;23.286;2023-03-01T19:39:12;14.47;;;10.07;;
69523;SDS011;56723;42.694;23.286;2023-03-01T19:41:40;14.60;;;9.43;;
69523;SDS011;56723;42.694;23.286;2023-03-01T19:44:08;17.20;;;10.87;;
69523;SDS011;56723;42.694;23.286;2023-03-01T19:46:35;17.67;;;10.60;;
69523;SDS011;56723;42.694;23.286;2023-03-01T19:49:02;15.17;;;10.00;;
69523;SDS011;56723;42.694;23.286;2023-03-01T19:51:30;14.73;;;10.17;;
69523;SDS011;56723;42.694;23.286;2023-03-01T19:54:04;15.33;;;9.37;;
69523;SDS011;56723;42.694;23.286;2023-03-01T19:56:32;15.73;;;10.57;;
69523;SDS011;56723;42.694;23.286;2023-03-01T19:59:00;57.83;;;11.10;;
69523;SDS011;56723;42.694;23.286;2023-03-01T20:01:30;14.63;;;8.87;;
69523;SDS011;56723;42.694;23.286;2023-03-01T20:04:00;13.07;;;8.40;;
69523;SDS011;56723;42.694;23.286;2023-03-01T20:06:27;13.53;;;8.70;;
69523;SDS011;56723;42.694;23.286;2023-03-01T20:08:56;15.60;;;9.33;;
69523;SDS011;56723;42.694;23.286;2023-03-01T20:11:24;15.17;;;9.60;;
69523;SDS011;56723;42.694;23.286;2023-03-01T20:13:50;19.67;;;11.37;;
69523;SDS011;56723;42.694;23.286;2023-03-01T20:16:18;16.43;;;10.93;;
69523;SDS011;56723;42.694;23.286;2023-03-01T20:18:45;14.83;;;9.83;;
69523;SDS011;56723;42.694;23.286;2023-03-01T20:21:12;18.00;;;10.73;;
69523;SDS011;56723;42.694;23.286;2023-03-01T20:23:50;23.80;;;13.87;;
69523;SDS011;56723;42.694;23.286;2023-03-01T20:26:18;21.07;;;12.50;;
69523;SDS011;56723;42.694;23.286;2023-03-01T20:28:47;20.73;;;12.83;;
69523;SDS011;56723;42.694;23.286;2023-03-01T20:31:17;22.77;;;14.70;;
69523;SDS011;56723;42.694;23.286;2023-03-01T20:33:45;18.73;;;11.98;;
69523;SDS011;56723;42.694;23.286;2023-03-01T20:36:13;18.00;;;11.43;;
69523;SDS011;56723;42.694;23.286;2023-03-01T20:38:40;17.73;;;10.70;;
69523;SDS011;56723;42.694;23.286;2023-03-01T20:41:08;18.37;;;11.57;;
69523;SDS011;56723;42.694;23.286;2023-03-01T20:43:37;20.07;;;11.73;;
69523;SDS011;56723;42.694;23.286;2023-03-01T20:46:06;19.10;;;11.77;;
69523;SDS011;56723;42.694;23.286;2023-03-01T20:48:36;17.33;;;10.67;;
69523;SDS011;56723;42.694;23.286;2023-03-01T20:51:06;18.40;;;11.70;;
69523;SDS011;56723;42.694;23.286;2023-03-01T20:53:33;20.37;;;11.60;;
69523;SDS011;56723;42.694;23.286;2023-03-01T20:56:02;15.80;;;9.77;;
69523;SDS011;56723;42.694;23.286;2023-03-01T20:58:29;15.98;;;10.07;;
69523;SDS011;56723;42.694;23.286;2023-03-01T21:01:01;18.60;;;11.27;;
69523;SDS011;56723;42.694;23.286;2023-03-01T21:03:30;17.20;;;10.07;;
69523;SDS011;56723;42.694;23.286;2023-03-01T21:05:57;20.23;;;10.90;;
69523;SDS011;56723;42.694;23.286;2023-03-01T21:08:25;16.73;;;10.27;;
69523;SDS011;56723;42.694;23.286;2023-03-01T21:10:53;19.97;;;9.93;;
69523;SDS011;56723;42.694;23.286;2023-03-01T21:13:21;16.00;;;9.50;;
69523;SDS011;56723;42.694;23.286;2023-03-01T21:15:56;19.37;;;10.70;;
69523;SDS011;56723;42.694;23.286;2023-03-01T21:18:30;17.87;;;10.73;;
69523;SDS011;56723;42.694;23.286;2023-03-01T21:20:58;18.07;;;10.73;;
69523;SDS011;56723;42.694;23.286;2023-03-01T21:23:31;22.00;;;12.47;;
69523;SDS011;56723;42.694;23.286;2023-03-01T21:26:06;18.80;;;10.37;;
69523;SDS011;56723;42.694;23.286;2023-03-01T21:28:36;16.53;;;9.70;;
69523;SDS011;56723;42.694;23.286;2023-03-01T21:31:05;17.58;;;10.95;;
69523;SDS011;56723;42.694;23.286;2023-03-01T21:33:38;15.10;;;9.97;;
69523;SDS011;56723;42.694;23.286;2023-03-01T21:36:06;15.80;;;9.83;;
69523;SDS011;56723;42.694;23.286;2023-03-01T21:38:36;19.02;;;10.85;;
69523;SDS011;56723;42.694;23.286;2023-03-01T21:41:09;15.90;;;9.37;;
69523;SDS011;56723;42.694;23.286;2023-03-01T21:43:41;18.23;;;10.07;;
69523;SDS011;56723;42.694;23.286;2023-03-01T21:46:11;18.38;;;10.95;;
69523;SDS011;56723;42.694;23.286;2023-03-01T21:48:41;19.17;;;10.57;;
69523;SDS011;56723;42.694;23.286;2023-03-01T21:51:11;17.70;;;10.13;;
69523;SDS011;56723;42.694;23.286;2023-03-01T21:53:40;18.13;;;9.40;;
69523;SDS011;56723;42.694;23.286;2023-03-01T21:56:08;13.27;;;7.87;;
69523;SDS011;56723;42.694;23.286;2023-03-01T21:58:35;15.90;;;9.43;;
69523;SDS011;56723;42.694;23.286;2023-03-01T22:01:06;13.93;;;8.03;;
69523;SDS011;56723;42.694;23.286;2023-03-01T22:03:35;19.13;;;8.77;;
69523;SDS011;56723;42.694;23.286;2023-03-01T22:06:21;14.17;;;8.07;;
69523;SDS011;56723;42.694;23.286;2023-03-01T22:08:51;15.20;;;8.48;;
69523;SDS011;56723;42.694;23.286;2023-03-01T22:11:22;10.70;;;7.50;;
69523;SDS011;56723;42.694;23.286;2023-03-01T22:13:52;12.50;;;6.68;;
69523;SDS011;56723;42.694;23.286;2023-03-01T22:16:26;15.52;;;8.65;;
69523;SDS011;56723;42.694;23.286;2023-03-01T22:18:56;14.17;;;7.53;;
69523;SDS011;56723;42.694;23.286;2023-03-01T22:21:23;10.90;;;6.70;;
69523;SDS011;56723;42.694;23.286;2023-03-01T22:23:51;11.17;;;6.27;;
69523;SDS011;56723;42.694;23.286;2023-03-01T22:26:29;9.27;;;5.68;;
69523;SDS011;56723;42.694;23.286;2023-03-01T22:29:00;10.27;;;5.50;;
69523;SDS011;56723;42.694;23.286;2023-03-01T22:31:29;9.60;;;5.63;;
69523;SDS011;56723;42.694;23.286;2023-03-01T22:33:56;7.70;;;3.73;;
69523;SDS011;56723;42.694;23.286;2023-03-01T22:36:24;7.17;;;4.80;;
69523;SDS011;56723;42.694;23.286;2023-03-01T22:38:52;6.80;;;4.90;;
69523;SDS011;56723;42.694;23.286;2023-03-01T22:41:26;7.27;;;4.20;;
69523;SDS011;56723;42.694;23.286;2023-03-01T22:43:57;8.83;;;5.10;;
69523;SDS011;56723;42.694;23.286;2023-03-01T22:46:25;7.40;;;4.70;;
69523;SDS011;56723;42.694;23.286;2023-03-01T22:48:53;8.20;;;4.05;;
69523;SDS011;56723;42.694;23.286;2023-03-01T22:51:26;8.53;;;5.30;;
69523;SDS011;56723;42.694;23.286;2023-03-01T22:53:56;7.90;;;4.50;;
69523;SDS011;56723;42.694;23.286;2023-03-01T22:56:27;6.77;;;4.00;;
69523;SDS011;56723;42.694;23.286;2023-03-01T22:58:58;6.87;;;3.63;;
69523;SDS011;56723;42.694;23.286;2023-03-01T23:01:28;6.73;;;4.83;;
69523;SDS011;56723;42.694;23.286;2023-03-01T23:03:56;6.77;;;3.23;;
69523;SDS011;56723;42.694;23.286;2023-03-01T23:06:23;7.40;;;4.43;;
69523;SDS011;56723;42.694;23.286;2023-03-01T23:08:51;5.53;;;3.50;;
69523;SDS011;56723;42.694;23.286;2023-03-01T23:11:20;5.57;;;3.15;;
